Time;durP1;ratioP1;P1;durP2;ratioP2;P2;SDS_P1;SDS_P2;PMS_P1;PMS_P2;Temp;Humidity;BMP_temperature;BMP_pressure;BME280_temperature;BME280_humidity;BME280_pressure;Samples;Min_cycle;Max_cycle;Signal;HPM_P1;HPM_P2
2021/12/24 00:01:58;;;;;;;35.20;23.80;;;4.40;83.90;;;;;;10965115;32;20061;-70
2021/12/24 00:08:01;;;;;;;38.25;27.23;;;4.50;84.30;;;;;;10978443;32;20424;-70
2021/12/24 00:14:05;;;;;;;32.15;21.65;;;4.70;84.00;;;;;;10979234;32;20045;-70
2021/12/24 00:20:53;;;;;;;40.90;30.30;;;4.70;83.70;;;;;;10984919;32;20030;-70
2021/12/24 00:39:24;;;;;;;30.10;20.52;;;4.50;84.20;;;;;;10984269;32;20033;-73
2021/12/24 00:45:29;;;;;;;41.75;29.20;;;4.50;84.30;;;;;;10984165;32;20019;-73
2021/12/24 00:51:43;;;;;;;33.63;24.30;;;4.40;84.10;;;;;;10983921;32;20049;-73
2021/12/24 00:58:04;;;;;;;44.08;31.67;;;4.60;84.20;;;;;;10983703;32;20045;-73
2021/12/24 01:04:13;;;;;;;41.65;27.15;;;4.60;84.40;;;;;;10983520;32;20030;-73
2021/12/24 01:10:19;;;;;;;34.63;23.48;;;4.60;84.10;;;;;;10983112;32;20030;-73
2021/12/24 01:16:27;;;;;;;44.25;31.30;;;4.50;84.30;;;;;;10983030;32;20027;-73
2021/12/24 01:48:09;;;;;;;49.55;32.83;;;4.50;84.40;;;;;;10977755;32;20053;-73
2021/12/24 01:54:11;;;;;;;45.63;31.15;;;4.30;84.80;;;;;;10975798;32;20426;-74
2021/12/24 02:00:21;;;;;;;61.78;42.88;;;4.60;84.90;;;;;;10965533;32;20049;-73
2021/12/24 02:06:23;;;;;;;40.60;25.95;;;4.80;84.50;;;;;;10845717;32;20032;-73
2021/12/24 02:12:26;;;;;;;34.80;23.67;;;4.90;84.40;;;;;;10825973;33;20333;-73
2021/12/24 02:30:56;;;;;;;31.58;22.45;;;4.40;84.60;;;;;;10825340;33;20024;-73
2021/12/24 02:36:59;;;;;;;30.65;21.37;;;4.40;84.60;;;;;;10821172;32;20086;-73
2021/12/24 02:43:22;;;;;;;31.75;24.37;;;4.30;84.80;;;;;;10824900;33;20392;-73
2021/12/24 02:55:45;;;;;;;37.65;25.20;;;4.30;84.70;;;;;;10824905;33;20187;-73
2021/12/24 03:01:50;;;;;;;38.33;25.10;;;4.30;84.70;;;;;;10824674;32;20035;-73
2021/12/24 03:07:53;;;;;;;36.33;24.60;;;4.20;84.70;;;;;;10824516;32;20016;-74
2021/12/24 03:13:55;;;;;;;33.15;23.60;;;4.20;84.90;;;;;;10824670;32;20047;-70
2021/12/24 03:20:05;;;;;;;34.35;22.75;;;4.40;84.60;;;;;;10824294;33;20095;-70
2021/12/24 03:26:10;;;;;;;51.63;35.00;;;4.30;84.30;;;;;;10824232;33;20016;-70
2021/12/24 03:32:12;;;;;;;43.30;28.40;;;4.30;84.50;;;;;;10823148;33;20028;-70
2021/12/24 03:38:14;;;;;;;42.38;28.42;;;4.40;84.40;;;;;;10823844;33;20328;-70
2021/12/24 03:44:18;;;;;;;51.55;36.05;;;4.50;84.10;;;;;;10823562;32;20043;-70
2021/12/24 03:50:25;;;;;;;40.38;28.98;;;4.50;84.20;;;;;;10826845;32;20028;-70
2021/12/24 03:56:28;;;;;;;40.97;26.23;;;4.50;84.00;;;;;;10829920;32;20047;-70
2021/12/24 04:02:30;;;;;;;54.03;31.90;;;4.50;83.80;;;;;;10829614;32;20032;-70
2021/12/24 04:08:35;;;;;;;37.42;27.50;;;4.40;84.10;;;;;;10825485;33;20035;-70
2021/12/24 04:14:38;;;;;;;35.05;24.33;;;4.30;84.10;;;;;;10829313;32;20055;-70
2021/12/24 04:27:02;;;;;;;33.20;24.05;;;4.00;84.70;;;;;;10828442;33;20020;-70
2021/12/24 04:33:29;;;;;;;33.17;23.38;;;4.00;84.30;;;;;;10829021;33;20019;-70
2021/12/24 04:39:48;;;;;;;40.55;27.92;;;4.00;84.30;;;;;;10826145;32;20058;-70
2021/12/24 05:05:20;;;;;;;31.33;22.50;;;4.10;84.10;;;;;;10827983;33;20024;-70
2021/12/24 05:11:23;;;;;;;31.67;23.33;;;4.10;83.80;;;;;;10827666;32;20038;-70
2021/12/24 05:17:33;;;;;;;38.45;28.17;;;3.90;84.10;;;;;;10827405;32;20028;-70
2021/12/24 05:24:03;;;;;;;41.88;29.65;;;4.10;84.10;;;;;;10824966;32;20340;-70
2021/12/24 05:30:06;;;;;;;38.00;26.55;;;4.20;83.90;;;;;;10824337;32;20380;-70
2021/12/24 05:36:08;;;;;;;38.20;27.55;;;4.00;83.80;;;;;;10826855;33;20039;-70
2021/12/24 05:42:10;;;;;;;36.97;28.00;;;3.90;84.20;;;;;;10826625;32;20028;-73
2021/12/24 05:48:13;;;;;;;46.40;37.40;;;4.00;84.10;;;;;;10826523;32;20416;-73
2021/12/24 05:54:15;;;;;;;42.65;32.63;;;4.10;84.10;;;;;;10826374;32;20031;-73
2021/12/24 06:00:18;;;;;;;36.05;26.33;;;4.20;83.80;;;;;;10824111;33;20027;-70
2021/12/24 06:06:20;;;;;;;42.38;26.92;;;4.20;83.60;;;;;;10827395;33;20047;-70
2021/12/24 06:12:22;;;;;;;33.47;26.98;;;4.10;83.70;;;;;;10822364;32;20016;-70
2021/12/24 06:18:26;;;;;;;48.08;35.65;;;4.10;84.00;;;;;;10825759;33;20028;-70
2021/12/24 06:24:29;;;;;;;45.05;32.28;;;4.20;84.20;;;;;;10825601;32;20059;-70
2021/12/24 06:30:31;;;;;;;44.45;32.72;;;4.30;83.90;;;;;;10825598;33;20020;-70
2021/12/24 06:36:36;;;;;;;37.05;27.98;;;4.40;84.10;;;;;;10823016;32;20051;-70
2021/12/24 06:42:38;;;;;;;47.30;34.83;;;4.40;84.40;;;;;;10825007;32;20028;-70
2021/12/24 06:48:41;;;;;;;34.47;24.50;;;4.30;84.50;;;;;;10825054;33;20012;-70
2021/12/24 06:54:43;;;;;;;30.90;24.98;;;4.10;84.70;;;;;;10824215;33;20008;-70
2021/12/24 07:00:45;;;;;;;36.92;26.85;;;4.20;84.50;;;;;;10823678;33;20020;-70
2021/12/24 07:06:47;;;;;;;44.65;29.65;;;4.10;84.20;;;;;;10824566;32;20020;-70
2021/12/24 07:12:49;;;;;;;35.45;25.80;;;4.00;84.40;;;;;;10824461;32;20047;-70
2021/12/24 07:18:51;;;;;;;40.70;27.62;;;3.90;84.20;;;;;;10824296;33;20028;-70
2021/12/24 07:25:15;;;;;;;34.97;26.20;;;3.70;84.30;;;;;;10827022;32;20046;-70
2021/12/24 07:31:17;;;;;;;38.53;29.98;;;3.60;84.50;;;;;;10830726;32;20054;-70
2021/12/24 07:37:28;;;;;;;31.55;23.33;;;3.50;84.50;;;;;;10830489;32;20032;-70
2021/12/24 07:43:30;;;;;;;32.20;23.05;;;3.50;84.60;;;;;;10830212;32;20332;-70
2021/12/24 07:49:39;;;;;;;39.17;25.98;;;3.60;84.90;;;;;;10830150;33;20348;-70
2021/12/24 07:55:41;;;;;;;41.05;30.40;;;3.90;84.80;;;;;;10829863;32;20415;-70
2021/12/24 08:01:44;;;;;;;39.05;24.80;;;4.00;84.40;;;;;;10829824;33;20384;-70
2021/12/24 08:07:46;;;;;;;43.67;26.92;;;4.00;84.30;;;;;;10829655;33;20404;-70
2021/12/24 08:13:48;;;;;;;37.20;26.08;;;4.10;84.70;;;;;;10828928;32;20078;-70
2021/12/24 08:19:54;;;;;;;35.60;24.55;;;4.10;84.50;;;;;;10828491;33;20332;-70
2021/12/24 08:25:59;;;;;;;32.95;25.08;;;3.90;84.30;;;;;;10829163;32;20054;-70
2021/12/24 08:39:32;;;;;;;;;;;3.90;84.20;;;;;;10751970;32;20060;-70
2021/12/24 08:45:34;;;;;;;35.40;26.42;;;4.00;84.60;;;;;;10751167;32;19932;-70
2021/12/24 08:51:37;;;;;;;30.80;23.33;;;4.30;84.90;;;;;;10748375;33;20025;-70
2021/12/24 08:57:41;;;;;;;26.87;17.73;;;4.50;84.80;;;;;;10751841;33;20063;-70
2021/12/24 09:03:44;;;;;;;28.45;21.42;;;4.50;84.60;;;;;;10751607;33;20036;-70
2021/12/24 09:09:46;;;;;;;30.90;22.05;;;4.70;84.90;;;;;;10751358;33;20402;-70
2021/12/24 09:15:48;;;;;;;25.27;18.70;;;4.70;84.50;;;;;;10809504;33;20042;-70
2021/12/24 09:21:51;;;;;;;21.05;17.17;;;4.70;84.70;;;;;;10827301;32;20050;-70
2021/12/24 09:27:54;;;;;;;38.58;26.90;;;4.80;84.60;;;;;;10811018;32;20418;-69
2021/12/24 09:33:57;;;;;;;27.87;20.35;;;4.70;84.50;;;;;;10790412;33;20050;-70
2021/12/24 09:39:59;;;;;;;33.05;23.05;;;4.80;84.70;;;;;;10789330;33;20467;-70
2021/12/24 09:46:01;;;;;;;28.70;20.37;;;4.90;84.70;;;;;;10429694;27;11942066;-70
2021/12/24 09:52:22;;;;;;;30.50;22.50;;;5.00;84.50;;;;;;10786317;33;20020;-70
2021/12/24 09:58:24;;;;;;;34.88;27.13;;;4.90;84.50;;;;;;10784043;32;20055;-71
2021/12/24 10:04:34;;;;;;;34.53;25.10;;;5.00;84.70;;;;;;10793978;33;20036;-70
2021/12/24 10:10:41;;;;;;;28.73;21.55;;;5.10;84.40;;;;;;10812589;33;20032;-70
2021/12/24 10:16:45;;;;;;;21.35;14.73;;;5.00;84.50;;;;;;10798804;33;20949;-70
2021/12/24 10:22:48;;;;;;;26.80;19.80;;;5.00;84.50;;;;;;10818467;33;20028;-70
2021/12/24 10:28:59;;;;;;;30.67;22.83;;;5.10;84.60;;;;;;10825006;33;20043;-70
2021/12/24 10:35:01;;;;;;;45.53;31.77;;;5.10;84.40;;;;;;10812314;33;20327;-70
2021/12/24 10:41:07;;;;;;;31.60;23.30;;;5.20;84.80;;;;;;10825025;32;20028;-71
2021/12/24 10:47:12;;;;;;;31.40;23.77;;;5.20;84.50;;;;;;10824691;32;20047;-70
2021/12/24 10:53:32;;;;;;;25.17;18.17;;;5.20;84.20;;;;;;10825012;33;20047;-70
2021/12/24 11:00:05;;;;;;;37.15;28.08;;;5.20;84.30;;;;;;10824946;32;20040;-70
2021/12/24 11:06:09;;;;;;;39.53;27.45;;;5.20;84.30;;;;;;10824853;33;20020;-70
2021/12/24 11:12:37;;;;;;;41.35;28.15;;;5.40;84.60;;;;;;10824531;33;20388;-70
2021/12/24 11:18:45;;;;;;;38.08;20.50;;;5.60;84.40;;;;;;10824236;33;20032;-70
2021/12/24 11:24:48;;;;;;;32.00;21.30;;;5.70;84.10;;;;;;10824140;33;20019;-71
2021/12/24 11:31:20;;;;;;;29.45;20.02;;;5.70;84.10;;;;;;10824046;33;20105;-70
2021/12/24 11:37:23;;;;;;;36.88;25.52;;;5.70;84.00;;;;;;10823893;33;20340;-70
2021/12/24 11:43:29;;;;;;;27.73;18.65;;;5.80;84.00;;;;;;10823702;32;20020;-70
2021/12/24 11:49:31;;;;;;;37.05;27.75;;;5.90;83.90;;;;;;10823617;33;20020;-70
2021/12/24 11:55:41;;;;;;;43.83;29.87;;;5.80;83.40;;;;;;10823347;33;20344;-70
2021/12/24 12:01:45;;;;;;;41.42;28.90;;;5.80;83.80;;;;;;10810300;32;20340;-70
2021/12/24 12:07:47;;;;;;;37.05;28.23;;;5.80;83.80;;;;;;10822630;33;20030;-70
2021/12/24 12:13:59;;;;;;;27.48;18.75;;;5.80;83.80;;;;;;10829048;32;20012;-73
2021/12/24 12:20:02;;;;;;;26.80;17.25;;;5.80;83.80;;;;;;10824976;33;20028;-73
2021/12/24 12:26:06;;;;;;;30.75;22.85;;;5.70;83.70;;;;;;10828978;33;20043;-73
2021/12/24 12:32:17;;;;;;;26.95;15.90;;;5.80;83.80;;;;;;10828529;33;20016;-73
2021/12/24 12:38:43;;;;;;;26.00;18.37;;;5.80;83.80;;;;;;10828619;33;20055;-73
2021/12/24 12:44:50;;;;;;;20.00;14.60;;;5.80;83.80;;;;;;10828413;33;20024;-72
2021/12/24 12:50:56;;;;;;;20.08;13.98;;;5.80;83.90;;;;;;10829718;33;20361;-73
2021/12/24 12:57:16;;;;;;;28.33;21.05;;;5.80;83.90;;;;;;10828348;33;20020;-73
2021/12/24 13:03:18;;;;;;;28.40;20.37;;;5.90;84.20;;;;;;10827918;33;20352;-73
2021/12/24 13:09:23;;;;;;;18.27;12.82;;;6.00;84.20;;;;;;10826761;33;20050;-73
2021/12/24 13:15:26;;;;;;;32.58;22.00;;;6.00;83.90;;;;;;10827657;33;20340;-73
2021/12/24 13:27:52;;;;;;;20.10;14.55;;;6.00;84.10;;;;;;10827364;33;20028;-73
2021/12/24 13:33:54;;;;;;;22.85;16.55;;;5.90;83.80;;;;;;10824093;33;20404;-73
2021/12/24 13:39:56;;;;;;;37.65;27.83;;;5.90;83.80;;;;;;10825610;33;20058;-73
2021/12/24 13:46:09;;;;;;;31.62;23.05;;;5.90;83.70;;;;;;10826796;33;20316;-73
2021/12/24 13:58:32;;;;;;;19.67;13.27;;;5.90;83.60;;;;;;10826754;33;20043;-73
2021/12/24 14:04:35;;;;;;;28.85;16.70;;;5.90;83.60;;;;;;10821278;33;20035;-73
2021/12/24 14:10:39;;;;;;;31.70;23.48;;;5.90;83.60;;;;;;10774555;33;20097;-73
2021/12/24 14:23:16;;;;;;;39.20;31.42;;;5.90;83.40;;;;;;10788445;33;20028;-73
2021/12/24 14:29:38;;;;;;;44.72;26.30;;;5.80;83.00;;;;;;10775631;33;20039;-72
2021/12/24 14:35:44;;;;;;;39.45;26.75;;;5.80;83.00;;;;;;10784070;33;20059;-73
2021/12/24 14:41:46;;;;;;;33.78;23.20;;;5.70;83.00;;;;;;10788500;32;20025;-73
2021/12/24 14:48:07;;;;;;;30.73;19.50;;;5.80;83.10;;;;;;10774591;33;20047;-73
2021/12/24 14:54:09;;;;;;;37.72;26.17;;;5.70;83.10;;;;;;10786293;32;20017;-72
2021/12/24 15:00:15;;;;;;;30.12;22.70;;;5.70;83.00;;;;;;10788516;33;20024;-73
2021/12/24 15:06:25;;;;;;;36.95;27.70;;;5.70;83.00;;;;;;10788032;33;20043;-70
2021/12/24 15:12:31;;;;;;;41.75;25.90;;;5.60;83.10;;;;;;10813714;33;20054;-69
2021/12/24 15:18:35;;;;;;;29.20;23.50;;;5.60;82.90;;;;;;10811207;33;20020;-70
2021/12/24 15:24:37;;;;;;;24.12;17.25;;;5.50;83.00;;;;;;10823530;33;20032;-70
2021/12/24 15:30:40;;;;;;;36.08;28.45;;;5.60;83.10;;;;;;10823739;33;20042;-70
2021/12/24 15:36:42;;;;;;;38.58;28.00;;;5.50;82.90;;;;;;10824120;33;20047;-72
2021/12/24 15:42:44;;;;;;;43.25;28.52;;;5.50;82.90;;;;;;10823560;33;20050;-70
2021/12/24 15:48:50;;;;;;;34.65;24.77;;;5.40;82.90;;;;;;10829711;32;20035;-70
2021/12/24 15:54:52;;;;;;;50.63;35.35;;;5.40;82.80;;;;;;10829995;33;20050;-69
2021/12/24 16:00:55;;;;;;;39.53;28.50;;;5.30;82.90;;;;;;10829717;33;20058;-73
2021/12/24 16:07:01;;;;;;;38.90;26.83;;;5.30;82.90;;;;;;10829616;33;20012;-73
2021/12/24 16:13:04;;;;;;;42.50;30.17;;;5.30;82.90;;;;;;10826566;33;20034;-73
2021/12/24 16:19:18;;;;;;;35.75;25.67;;;5.40;83.00;;;;;;10829217;33;20001;-73
2021/12/24 16:25:20;;;;;;;33.83;24.05;;;5.40;83.00;;;;;;10829010;33;20078;-73
2021/12/24 16:31:23;;;;;;;35.65;26.75;;;5.40;83.00;;;;;;10818638;33;20051;-73
2021/12/24 16:37:29;;;;;;;38.42;28.33;;;5.40;83.10;;;;;;10792036;33;20024;-73
2021/12/24 16:43:31;;;;;;;38.65;26.33;;;5.30;83.10;;;;;;10791727;33;20025;-73
2021/12/24 16:49:42;;;;;;;30.20;20.80;;;5.30;83.20;;;;;;10791717;33;20036;-73
2021/12/24 16:55:48;;;;;;;38.00;27.48;;;5.30;83.30;;;;;;10790896;33;20020;-73
2021/12/24 17:01:51;;;;;;;56.72;36.63;;;5.30;83.30;;;;;;10775892;33;20063;-73
2021/12/24 17:07:53;;;;;;;47.38;31.27;;;5.40;83.40;;;;;;10791125;33;20043;-73
2021/12/24 17:13:55;;;;;;;36.13;25.75;;;5.40;83.40;;;;;;10790563;33;20029;-73
2021/12/24 17:19:58;;;;;;;30.30;23.08;;;5.40;83.40;;;;;;10818311;33;20035;-70
2021/12/24 17:26:00;;;;;;;43.90;31.37;;;5.40;83.40;;;;;;10827370;33;20055;-70
2021/12/24 17:32:03;;;;;;;40.67;28.98;;;5.40;83.40;;;;;;10827134;33;20050;-70
2021/12/24 17:38:05;;;;;;;30.67;20.48;;;5.40;83.40;;;;;;10826191;33;20024;-70
2021/12/24 17:44:07;;;;;;;30.73;20.50;;;5.40;83.50;;;;;;10922097;27;20065;-70
2021/12/24 17:50:11;;;;;;;57.30;42.20;;;5.40;83.50;;;;;;11014082;32;20034;-70
2021/12/24 17:56:13;;;;;;;38.45;24.12;;;5.40;83.40;;;;;;11019272;32;20414;-70
2021/12/24 18:02:16;;;;;;;52.15;33.53;;;5.30;83.50;;;;;;11019678;32;20421;-70
2021/12/24 18:08:18;;;;;;;39.95;30.23;;;5.30;83.50;;;;;;11019478;32;20018;-70
2021/12/24 18:14:20;;;;;;;38.67;29.00;;;5.30;83.50;;;;;;11019203;32;20044;-70
2021/12/24 18:20:22;;;;;;;49.83;31.77;;;5.30;83.50;;;;;;11019008;32;20026;-70
2021/12/24 18:26:24;;;;;;;43.95;29.77;;;5.30;83.50;;;;;;11015736;32;20049;-70
2021/12/24 18:32:27;;;;;;;29.27;20.92;;;5.30;83.50;;;;;;11018568;32;20047;-70
2021/12/24 18:38:31;;;;;;;20.40;13.95;;;5.30;83.50;;;;;;11004885;32;20018;-70
2021/12/24 18:44:33;;;;;;;30.17;20.20;;;5.40;83.60;;;;;;11018159;32;20022;-70
2021/12/24 18:50:37;;;;;;;31.25;21.62;;;5.40;83.60;;;;;;11002542;32;20111;-70
2021/12/24 18:56:39;;;;;;;28.12;20.65;;;5.50;83.70;;;;;;10996420;32;20034;-70
2021/12/24 19:02:41;;;;;;;40.75;29.75;;;5.50;83.60;;;;;;11017584;32;20065;-70
2021/12/24 19:08:47;;;;;;;38.22;24.85;;;5.60;83.80;;;;;;11017944;32;20018;-70
2021/12/24 19:14:49;;;;;;;38.40;24.02;;;5.70;84.00;;;;;;11004009;32;20014;-70
2021/12/24 19:20:53;;;;;;;46.78;31.73;;;5.70;83.80;;;;;;11021047;32;20057;-70
2021/12/24 19:26:55;;;;;;;43.90;28.83;;;5.60;83.90;;;;;;11025525;32;20026;-71
2021/12/24 19:32:58;;;;;;;28.27;19.52;;;5.60;83.90;;;;;;11025296;32;20061;-71
2021/12/24 19:39:00;;;;;;;37.88;25.45;;;5.50;83.90;;;;;;11021870;32;20379;-70
2021/12/24 19:45:04;;;;;;;30.37;21.85;;;5.50;84.00;;;;;;11024617;32;20391;-70
2021/12/24 19:51:12;;;;;;;27.83;18.33;;;5.50;84.00;;;;;;11011594;32;20061;-71
2021/12/24 19:57:15;;;;;;;28.58;20.40;;;5.50;84.00;;;;;;11024278;32;20437;-70
2021/12/24 20:03:17;;;;;;;22.15;16.73;;;5.50;84.10;;;;;;11024158;32;20398;-71
2021/12/24 20:09:19;;;;;;;31.58;19.33;;;5.50;84.00;;;;;;11024022;32;20295;-71
2021/12/24 20:15:21;;;;;;;31.90;20.83;;;5.60;84.10;;;;;;11023671;32;20069;-71
2021/12/24 20:21:23;;;;;;;28.42;17.12;;;5.50;84.00;;;;;;11023322;32;20038;-71
2021/12/24 20:27:27;;;;;;;32.85;23.77;;;5.50;84.10;;;;;;11009244;32;20429;-70
2021/12/24 20:33:29;;;;;;;51.85;32.67;;;5.60;84.10;;;;;;11022001;32;20390;-71
2021/12/24 20:39:32;;;;;;;37.75;26.15;;;5.60;84.10;;;;;;11018475;32;20405;-70
2021/12/24 20:45:35;;;;;;;61.45;40.30;;;5.60;84.40;;;;;;11022627;32;20018;-71
2021/12/24 20:51:37;;;;;;;37.22;24.17;;;5.60;84.50;;;;;;11022452;32;20049;-71
2021/12/24 20:57:40;;;;;;;30.23;21.92;;;5.70;84.40;;;;;;11008528;32;20293;-71
2021/12/24 21:03:42;;;;;;;42.95;31.62;;;5.70;84.30;;;;;;11021895;32;20025;-70
2021/12/24 21:09:45;;;;;;;35.90;23.38;;;5.60;84.30;;;;;;11021694;32;20365;-71
2021/12/24 21:15:50;;;;;;;33.63;24.17;;;5.50;84.30;;;;;;11007884;32;20048;-71
2021/12/24 21:21:52;;;;;;;27.42;20.83;;;5.50;84.50;;;;;;11018268;32;20370;-70
2021/12/24 21:27:54;;;;;;;38.72;28.25;;;5.60;84.40;;;;;;11021091;32;20052;-71
2021/12/24 21:33:57;;;;;;;36.70;24.63;;;5.60;84.40;;;;;;11021023;32;20350;-71
2021/12/24 21:39:59;;;;;;;31.02;20.45;;;5.50;84.40;;;;;;11020501;32;20296;-73
2021/12/24 21:46:02;;;;;;;33.03;25.10;;;5.50;84.50;;;;;;11019929;32;20046;-73
2021/12/24 21:52:06;;;;;;;46.08;33.83;;;5.60;84.60;;;;;;11020146;32;20048;-73
2021/12/24 21:58:15;;;;;;;45.78;30.80;;;5.60;84.40;;;;;;11019871;32;20030;-73
2021/12/24 22:10:21;;;;;;;37.25;27.15;;;5.50;84.50;;;;;;11019380;32;20057;-73
2021/12/24 22:16:23;;;;;;;34.17;23.48;;;5.50;84.50;;;;;;11015024;32;20021;-73
2021/12/24 22:22:30;;;;;;;37.20;27.10;;;5.60;84.50;;;;;;11019111;32;20017;-73
2021/12/24 22:29:52;;;;;;;34.35;23.20;;;5.60;84.50;;;;;;11018966;32;20014;-73
2021/12/24 22:35:54;;;;;;;30.88;23.08;;;5.60;84.50;;;;;;11018799;32;20022;-73
2021/12/24 22:41:56;;;;;;;39.30;24.27;;;5.70;84.60;;;;;;11018360;32;20038;-73
2021/12/24 22:47:59;;;;;;;31.67;22.13;;;5.70;84.50;;;;;;11018386;32;20044;-73
2021/12/24 22:54:04;;;;;;;49.00;32.85;;;5.70;84.60;;;;;;11017389;32;20414;-71
2021/12/24 23:00:12;;;;;;;44.70;28.83;;;5.70;84.60;;;;;;11017774;32;20057;-71
2021/12/24 23:06:14;;;;;;;31.53;22.13;;;5.70;84.60;;;;;;11017880;32;20040;-71
2021/12/24 23:12:17;;;;;;;38.75;26.00;;;5.70;84.60;;;;;;11017908;32;20010;-70
2021/12/24 23:18:22;;;;;;;42.85;29.83;;;5.70;84.70;;;;;;11017568;32;20018;-70
2021/12/24 23:24:26;;;;;;;52.60;33.85;;;5.70;84.70;;;;;;11003684;32;20049;-71
2021/12/24 23:30:47;;;;;;;39.22;23.48;;;5.70;84.70;;;;;;11017281;32;20045;-70
2021/12/24 23:36:49;;;;;;;42.83;27.13;;;5.70;84.60;;;;;;11017196;32;20022;-71
2021/12/24 23:42:52;;;;;;;46.78;32.00;;;5.80;84.70;;;;;;11014286;32;20326;-71
2021/12/24 23:48:54;;;;;;;42.78;28.87;;;5.80;84.70;;;;;;11017195;32;20022;-70
2021/12/24 23:54:56;;;;;;;44.88;27.65;;;5.70;84.70;;;;;;11016037;32;20049;-73
